sensor_id;sensor_type;location;lat;lon;timestamp;P1;durP1;ratioP1;P2;durP2;ratioP2
46875;SDS011;32866;50.160;14.768;2023-04-02T00:07:42;2.33;;;2.10;;
46875;SDS011;32866;50.160;14.768;2023-04-02T00:10:29;3.87;;;2.30;;
46875;SDS011;32866;50.160;14.768;2023-04-02T00:13:03;4.35;;;2.88;;
46875;SDS011;32866;50.160;14.768;2023-04-02T00:15:45;5.40;;;3.00;;
46875;SDS011;32866;50.160;14.768;2023-04-02T00:18:14;5.40;;;3.30;;
46875;SDS011;32866;50.160;14.768;2023-04-02T00:20:41;5.30;;;3.30;;
46875;SDS011;32866;50.160;14.768;2023-04-02T00:23:11;4.23;;;3.23;;
46875;SDS011;32866;50.160;14.768;2023-04-02T00:25:39;3.87;;;2.97;;
46875;SDS011;32866;50.160;14.768;2023-04-02T00:28:09;5.57;;;3.53;;
46875;SDS011;32866;50.160;14.768;2023-04-02T00:30:37;3.43;;;2.43;;
46875;SDS011;32866;50.160;14.768;2023-04-02T00:33:13;4.07;;;3.33;;
46875;SDS011;32866;50.160;14.768;2023-04-02T00:35:41;3.80;;;2.87;;
46875;SDS011;32866;50.160;14.768;2023-04-02T00:38:09;4.60;;;2.90;;
46875;SDS011;32866;50.160;14.768;2023-04-02T00:43:09;5.47;;;2.65;;
46875;SDS011;32866;50.160;14.768;2023-04-02T00:45:40;3.23;;;2.73;;
46875;SDS011;32866;50.160;14.768;2023-04-02T00:48:57;2.40;;;2.00;;
46875;SDS011;32866;50.160;14.768;2023-04-02T00:51:13;3.53;;;2.70;;
46875;SDS011;32866;50.160;14.768;2023-04-02T00:53:44;4.30;;;3.03;;
46875;SDS011;32866;50.160;14.768;2023-04-02T00:56:14;3.90;;;2.47;;
46875;SDS011;32866;50.160;14.768;2023-04-02T00:58:43;4.17;;;2.57;;
46875;SDS011;32866;50.160;14.768;2023-04-02T01:01:15;3.03;;;2.37;;
46875;SDS011;32866;50.160;14.768;2023-04-02T01:03:43;4.23;;;2.70;;
46875;SDS011;32866;50.160;14.768;2023-04-02T01:06:22;4.17;;;2.40;;
46875;SDS011;32866;50.160;14.768;2023-04-02T01:09:13;4.00;;;2.20;;
46875;SDS011;32866;50.160;14.768;2023-04-02T01:25:54;2.60;;;2.40;;
46875;SDS011;32866;50.160;14.768;2023-04-02T01:28:27;3.23;;;2.50;;
46875;SDS011;32866;50.160;14.768;2023-04-02T01:30:59;3.10;;;2.47;;
46875;SDS011;32866;50.160;14.768;2023-04-02T01:33:28;2.93;;;2.23;;
46875;SDS011;32866;50.160;14.768;2023-04-02T01:36:12;4.83;;;2.50;;
46875;SDS011;32866;50.160;14.768;2023-04-02T01:39:38;2.67;;;2.20;;
46875;SDS011;32866;50.160;14.768;2023-04-02T01:44:40;4.10;;;3.10;;
46875;SDS011;32866;50.160;14.768;2023-04-02T01:47:11;3.60;;;2.60;;
46875;SDS011;32866;50.160;14.768;2023-04-02T01:49:38;3.93;;;2.63;;
46875;SDS011;32866;50.160;14.768;2023-04-02T01:52:07;3.53;;;2.70;;
46875;SDS011;32866;50.160;14.768;2023-04-02T01:54:37;3.23;;;2.73;;
46875;SDS011;32866;50.160;14.768;2023-04-02T01:57:03;2.80;;;2.50;;
46875;SDS011;32866;50.160;14.768;2023-04-02T01:59:29;3.72;;;3.00;;
46875;SDS011;32866;50.160;14.768;2023-04-02T02:02:00;4.20;;;2.93;;
46875;SDS011;32866;50.160;14.768;2023-04-02T02:04:28;3.57;;;3.00;;
46875;SDS011;32866;50.160;14.768;2023-04-02T02:06:55;4.43;;;3.27;;
46875;SDS011;32866;50.160;14.768;2023-04-02T02:09:24;4.17;;;3.00;;
46875;SDS011;32866;50.160;14.768;2023-04-02T02:11:52;5.07;;;3.50;;
46875;SDS011;32866;50.160;14.768;2023-04-02T02:14:19;4.53;;;2.72;;
46875;SDS011;32866;50.160;14.768;2023-04-02T02:16:46;4.60;;;3.10;;
46875;SDS011;32866;50.160;14.768;2023-04-02T02:21:53;3.90;;;3.07;;
46875;SDS011;32866;50.160;14.768;2023-04-02T02:29:48;6.43;;;3.40;;
46875;SDS011;32866;50.160;14.768;2023-04-02T02:32:18;7.03;;;3.60;;
46875;SDS011;32866;50.160;14.768;2023-04-02T02:37:46;4.67;;;3.50;;
46875;SDS011;32866;50.160;14.768;2023-04-02T02:40:20;5.77;;;3.47;;
46875;SDS011;32866;50.160;14.768;2023-04-02T02:42:54;4.27;;;3.37;;
46875;SDS011;32866;50.160;14.768;2023-04-02T02:45:26;6.67;;;4.63;;
46875;SDS011;32866;50.160;14.768;2023-04-02T02:47:56;6.90;;;3.77;;
46875;SDS011;32866;50.160;14.768;2023-04-02T02:50:26;5.50;;;4.87;;
46875;SDS011;32866;50.160;14.768;2023-04-02T02:52:57;9.03;;;4.73;;
46875;SDS011;32866;50.160;14.768;2023-04-02T02:55:26;7.07;;;4.53;;
46875;SDS011;32866;50.160;14.768;2023-04-02T02:57:59;6.03;;;4.57;;
46875;SDS011;32866;50.160;14.768;2023-04-02T03:00:26;8.83;;;4.90;;
46875;SDS011;32866;50.160;14.768;2023-04-02T03:02:52;5.60;;;4.32;;
46875;SDS011;32866;50.160;14.768;2023-04-02T03:05:20;6.77;;;4.53;;
46875;SDS011;32866;50.160;14.768;2023-04-02T03:07:48;10.53;;;5.30;;
46875;SDS011;32866;50.160;14.768;2023-04-02T03:11:04;6.80;;;5.57;;
46875;SDS011;32866;50.160;14.768;2023-04-02T03:18:35;12.77;;;5.67;;
46875;SDS011;32866;50.160;14.768;2023-04-02T03:26:33;11.53;;;6.10;;
46875;SDS011;32866;50.160;14.768;2023-04-02T03:31:40;8.03;;;5.73;;
46875;SDS011;32866;50.160;14.768;2023-04-02T03:34:15;9.03;;;5.50;;
46875;SDS011;32866;50.160;14.768;2023-04-02T03:36:53;7.00;;;5.07;;
46875;SDS011;32866;50.160;14.768;2023-04-02T03:39:32;11.37;;;6.20;;
46875;SDS011;32866;50.160;14.768;2023-04-02T03:42:08;10.47;;;5.67;;
46875;SDS011;32866;50.160;14.768;2023-04-02T03:52:32;6.90;;;5.13;;
46875;SDS011;32866;50.160;14.768;2023-04-02T03:55:00;10.20;;;6.23;;
46875;SDS011;32866;50.160;14.768;2023-04-02T03:57:36;7.90;;;5.17;;
46875;SDS011;32866;50.160;14.768;2023-04-02T04:00:12;7.03;;;5.10;;
46875;SDS011;32866;50.160;14.768;2023-04-02T04:02:44;7.93;;;4.97;;
46875;SDS011;32866;50.160;14.768;2023-04-02T04:05:20;5.47;;;4.40;;
46875;SDS011;32866;50.160;14.768;2023-04-02T04:10:27;7.30;;;4.65;;
46875;SDS011;32866;50.160;14.768;2023-04-02T04:12:55;7.47;;;5.77;;
46875;SDS011;32866;50.160;14.768;2023-04-02T04:15:38;6.23;;;5.30;;
46875;SDS011;32866;50.160;14.768;2023-04-02T04:21:26;6.70;;;5.37;;
46875;SDS011;32866;50.160;14.768;2023-04-02T04:23:56;8.37;;;5.10;;
46875;SDS011;32866;50.160;14.768;2023-04-02T04:26:51;6.93;;;5.50;;
46875;SDS011;32866;50.160;14.768;2023-04-02T04:29:34;9.07;;;6.30;;
46875;SDS011;32866;50.160;14.768;2023-04-02T04:32:32;9.40;;;6.63;;
46875;SDS011;32866;50.160;14.768;2023-04-02T04:42:53;7.53;;;5.20;;
46875;SDS011;32866;50.160;14.768;2023-04-02T04:45:36;7.13;;;5.93;;
46875;SDS011;32866;50.160;14.768;2023-04-02T04:50:55;8.93;;;6.25;;
46875;SDS011;32866;50.160;14.768;2023-04-02T04:53:23;8.87;;;6.73;;
46875;SDS011;32866;50.160;14.768;2023-04-02T04:55:52;9.17;;;6.30;;
46875;SDS011;32866;50.160;14.768;2023-04-02T04:58:24;6.80;;;5.40;;
46875;SDS011;32866;50.160;14.768;2023-04-02T05:03:59;7.97;;;6.37;;
46875;SDS011;32866;50.160;14.768;2023-04-02T05:06:56;6.47;;;5.40;;
46875;SDS011;32866;50.160;14.768;2023-04-02T05:09:41;7.33;;;5.60;;
46875;SDS011;32866;50.160;14.768;2023-04-02T05:14:53;9.60;;;5.50;;
46875;SDS011;32866;50.160;14.768;2023-04-02T05:17:33;5.97;;;5.33;;
46875;SDS011;32866;50.160;14.768;2023-04-02T05:23:08;5.70;;;4.20;;
46875;SDS011;32866;50.160;14.768;2023-04-02T05:25:49;5.97;;;4.43;;
46875;SDS011;32866;50.160;14.768;2023-04-02T05:28:18;5.57;;;4.40;;
46875;SDS011;32866;50.160;14.768;2023-04-02T05:31:00;5.53;;;4.93;;
46875;SDS011;32866;50.160;14.768;2023-04-02T05:33:30;5.90;;;4.33;;
46875;SDS011;32866;50.160;14.768;2023-04-02T05:38:30;6.10;;;4.90;;
46875;SDS011;32866;50.160;14.768;2023-04-02T05:40:59;17.03;;;4.80;;
46875;SDS011;32866;50.160;14.768;2023-04-02T05:43:47;5.97;;;4.23;;
46875;SDS011;32866;50.160;14.768;2023-04-02T05:46:19;4.57;;;3.63;;
46875;SDS011;32866;50.160;14.768;2023-04-02T05:48:53;4.60;;;4.15;;
46875;SDS011;32866;50.160;14.768;2023-04-02T05:51:22;6.37;;;4.03;;
46875;SDS011;32866;50.160;14.768;2023-04-02T05:53:55;5.93;;;3.90;;
46875;SDS011;32866;50.160;14.768;2023-04-02T05:56:29;4.63;;;3.60;;
46875;SDS011;32866;50.160;14.768;2023-04-02T05:59:10;3.53;;;3.10;;
46875;SDS011;32866;50.160;14.768;2023-04-02T06:01:47;3.03;;;2.73;;
46875;SDS011;32866;50.160;14.768;2023-04-02T06:07:27;3.67;;;2.50;;
46875;SDS011;32866;50.160;14.768;2023-04-02T06:15:22;2.03;;;1.83;;
46875;SDS011;32866;50.160;14.768;2023-04-02T06:20:38;3.40;;;2.73;;
46875;SDS011;32866;50.160;14.768;2023-04-02T06:23:12;2.88;;;2.08;;
46875;SDS011;32866;50.160;14.768;2023-04-02T06:25:43;2.40;;;2.13;;
46875;SDS011;32866;50.160;14.768;2023-04-02T06:28:36;3.80;;;2.70;;
46875;SDS011;32866;50.160;14.768;2023-04-02T06:31:05;3.57;;;2.90;;
46875;SDS011;32866;50.160;14.768;2023-04-02T06:33:34;5.03;;;2.77;;
46875;SDS011;32866;50.160;14.768;2023-04-02T06:36:01;3.35;;;2.53;;
46875;SDS011;32866;50.160;14.768;2023-04-02T06:38:29;4.13;;;2.60;;
46875;SDS011;32866;50.160;14.768;2023-04-02T06:40:58;2.67;;;2.40;;
46875;SDS011;32866;50.160;14.768;2023-04-02T06:43:40;3.77;;;3.00;;
46875;SDS011;32866;50.160;14.768;2023-04-02T06:46:14;3.87;;;3.20;;
46875;SDS011;32866;50.160;14.768;2023-04-02T06:48:53;3.47;;;2.80;;
46875;SDS011;32866;50.160;14.768;2023-04-02T06:51:26;4.17;;;3.50;;
46875;SDS011;32866;50.160;14.768;2023-04-02T06:53:53;9.53;;;6.03;;
46875;SDS011;32866;50.160;14.768;2023-04-02T06:56:37;3.67;;;3.30;;
46875;SDS011;32866;50.160;14.768;2023-04-02T06:59:07;3.30;;;3.00;;
46875;SDS011;32866;50.160;14.768;2023-04-02T07:01:38;4.40;;;3.40;;
46875;SDS011;32866;50.160;14.768;2023-04-02T07:04:13;4.00;;;2.90;;
46875;SDS011;32866;50.160;14.768;2023-04-02T07:09:04;4.20;;;2.60;;
46875;SDS011;32866;50.160;14.768;2023-04-02T07:11:30;3.22;;;2.67;;
46875;SDS011;32866;50.160;14.768;2023-04-02T07:13:56;2.85;;;2.00;;
46875;SDS011;32866;50.160;14.768;2023-04-02T07:16:22;2.45;;;2.25;;
46875;SDS011;32866;50.160;14.768;2023-04-02T07:18:52;2.87;;;2.13;;
46875;SDS011;32866;50.160;14.768;2023-04-02T07:21:25;1.77;;;1.67;;
46875;SDS011;32866;50.160;14.768;2023-04-02T07:26:17;3.07;;;1.90;;
46875;SDS011;32866;50.160;14.768;2023-04-02T07:28:46;1.70;;;1.40;;
46875;SDS011;32866;50.160;14.768;2023-04-02T07:31:44;1.88;;;1.40;;
46875;SDS011;32866;50.160;14.768;2023-04-02T07:34:05;2.20;;;1.60;;
46875;SDS011;32866;50.160;14.768;2023-04-02T07:36:31;1.77;;;1.50;;
46875;SDS011;32866;50.160;14.768;2023-04-02T07:38:56;1.90;;;1.38;;
46875;SDS011;32866;50.160;14.768;2023-04-02T07:41:21;2.53;;;1.75;;
46875;SDS011;32866;50.160;14.768;2023-04-02T07:43:47;2.20;;;1.58;;
46875;SDS011;32866;50.160;14.768;2023-04-02T07:46:13;2.25;;;1.45;;
46875;SDS011;32866;50.160;14.768;2023-04-02T07:48:40;2.00;;;1.80;;
46875;SDS011;32866;50.160;14.768;2023-04-02T07:51:40;1.60;;;1.42;;
46875;SDS011;32866;50.160;14.768;2023-04-02T07:53:58;1.50;;;1.40;;
46875;SDS011;32866;50.160;14.768;2023-04-02T07:56:25;1.60;;;1.10;;
46875;SDS011;32866;50.160;14.768;2023-04-02T07:58:52;1.33;;;1.20;;
46875;SDS011;32866;50.160;14.768;2023-04-02T08:01:19;1.85;;;1.17;;
46875;SDS011;32866;50.160;14.768;2023-04-02T08:03:48;2.07;;;1.87;;
46875;SDS011;32866;50.160;14.768;2023-04-02T08:08:40;2.60;;;1.20;;
46875;SDS011;32866;50.160;14.768;2023-04-02T08:11:06;2.05;;;1.85;;
46875;SDS011;32866;50.160;14.768;2023-04-02T08:13:32;1.17;;;1.13;;
46875;SDS011;32866;50.160;14.768;2023-04-02T08:16:00;2.88;;;1.98;;
46875;SDS011;32866;50.160;14.768;2023-04-02T08:18:26;2.53;;;1.60;;
46875;SDS011;32866;50.160;14.768;2023-04-02T08:20:53;1.83;;;1.43;;
46875;SDS011;32866;50.160;14.768;2023-04-02T08:23:18;1.77;;;1.35;;
46875;SDS011;32866;50.160;14.768;2023-04-02T08:28:11;1.42;;;1.10;;
46875;SDS011;32866;50.160;14.768;2023-04-02T08:30:37;1.73;;;1.40;;
46875;SDS011;32866;50.160;14.768;2023-04-02T08:33:02;1.63;;;1.50;;
46875;SDS011;32866;50.160;14.768;2023-04-02T08:35:28;1.67;;;1.20;;
46875;SDS011;32866;50.160;14.768;2023-04-02T08:37:54;1.20;;;1.10;;
46875;SDS011;32866;50.160;14.768;2023-04-02T08:40:53;1.92;;;1.77;;
46875;SDS011;32866;50.160;14.768;2023-04-02T08:46:10;1.30;;;1.20;;
46875;SDS011;32866;50.160;14.768;2023-04-02T08:48:54;2.20;;;1.00;;
46875;SDS011;32866;50.160;14.768;2023-04-02T08:51:25;1.60;;;1.43;;
46875;SDS011;32866;50.160;14.768;2023-04-02T08:53:53;1.57;;;0.93;;
46875;SDS011;32866;50.160;14.768;2023-04-02T08:56:35;1.30;;;0.90;;
46875;SDS011;32866;50.160;14.768;2023-04-02T08:59:14;2.23;;;1.30;;
46875;SDS011;32866;50.160;14.768;2023-04-02T09:04:31;1.40;;;1.00;;
46875;SDS011;32866;50.160;14.768;2023-04-02T09:06:58;2.30;;;1.10;;
46875;SDS011;32866;50.160;14.768;2023-04-02T09:09:24;1.60;;;1.47;;
46875;SDS011;32866;50.160;14.768;2023-04-02T09:11:52;1.40;;;1.30;;
46875;SDS011;32866;50.160;14.768;2023-04-02T09:14:34;0.80;;;0.80;;
46875;SDS011;32866;50.160;14.768;2023-04-02T09:17:16;1.27;;;0.80;;
46875;SDS011;32866;50.160;14.768;2023-04-02T09:19:52;0.98;;;0.95;;
46875;SDS011;32866;50.160;14.768;2023-04-02T09:22:37;1.13;;;1.00;;
46875;SDS011;32866;50.160;14.768;2023-04-02T09:25:04;1.17;;;0.90;;
46875;SDS011;32866;50.160;14.768;2023-04-02T09:27:36;1.73;;;1.10;;
46875;SDS011;32866;50.160;14.768;2023-04-02T09:30:22;1.20;;;1.10;;
46875;SDS011;32866;50.160;14.768;2023-04-02T09:32:54;1.70;;;1.30;;
46875;SDS011;32866;50.160;14.768;2023-04-02T09:35:27;2.83;;;1.47;;
46875;SDS011;32866;50.160;14.768;2023-04-02T09:40:43;4.67;;;1.90;;
46875;SDS011;32866;50.160;14.768;2023-04-02T09:43:16;2.20;;;1.80;;
46875;SDS011;32866;50.160;14.768;2023-04-02T09:46:32;1.93;;;1.73;;
46875;SDS011;32866;50.160;14.768;2023-04-02T09:48:43;2.60;;;2.00;;
46875;SDS011;32866;50.160;14.768;2023-04-02T09:54:12;2.30;;;1.90;;
46875;SDS011;32866;50.160;14.768;2023-04-02T09:56:40;3.40;;;2.30;;
46875;SDS011;32866;50.160;14.768;2023-04-02T09:59:24;5.00;;;2.07;;
46875;SDS011;32866;50.160;14.768;2023-04-02T10:07:10;3.27;;;2.00;;
46875;SDS011;32866;50.160;14.768;2023-04-02T10:12:58;2.27;;;2.00;;
46875;SDS011;32866;50.160;14.768;2023-04-02T10:15:26;3.13;;;2.47;;
46875;SDS011;32866;50.160;14.768;2023-04-02T10:18:02;6.13;;;2.40;;
46875;SDS011;32866;50.160;14.768;2023-04-02T10:20:37;3.03;;;2.50;;
46875;SDS011;32866;50.160;14.768;2023-04-02T10:23:07;3.23;;;2.07;;
46875;SDS011;32866;50.160;14.768;2023-04-02T10:31:15;6.50;;;2.47;;
46875;SDS011;32866;50.160;14.768;2023-04-02T10:34:02;3.23;;;2.40;;
46875;SDS011;32866;50.160;14.768;2023-04-02T10:36:47;4.90;;;2.53;;
46875;SDS011;32866;50.160;14.768;2023-04-02T10:44:50;2.07;;;1.80;;
46875;SDS011;32866;50.160;14.768;2023-04-02T10:50:10;2.97;;;2.23;;
46875;SDS011;32866;50.160;14.768;2023-04-02T10:55:41;2.57;;;2.20;;
46875;SDS011;32866;50.160;14.768;2023-04-02T11:01:16;4.87;;;2.50;;
46875;SDS011;32866;50.160;14.768;2023-04-02T11:03:51;3.27;;;2.30;;
46875;SDS011;32866;50.160;14.768;2023-04-02T11:06:24;3.40;;;2.77;;
46875;SDS011;32866;50.160;14.768;2023-04-02T11:08:55;4.33;;;3.10;;
46875;SDS011;32866;50.160;14.768;2023-04-02T11:11:26;4.30;;;3.13;;
46875;SDS011;32866;50.160;14.768;2023-04-02T11:16:45;3.70;;;3.30;;
46875;SDS011;32866;50.160;14.768;2023-04-02T11:21:39;3.53;;;2.80;;
46875;SDS011;32866;50.160;14.768;2023-04-02T11:24:22;4.47;;;2.70;;
46875;SDS011;32866;50.160;14.768;2023-04-02T11:39:54;2.97;;;2.37;;
46875;SDS011;32866;50.160;14.768;2023-04-02T11:42:27;5.50;;;2.93;;
46875;SDS011;32866;50.160;14.768;2023-04-02T11:45:01;4.77;;;2.60;;
46875;SDS011;32866;50.160;14.768;2023-04-02T11:50:38;11.53;;;6.67;;
46875;SDS011;32866;50.160;14.768;2023-04-02T11:55:37;4.40;;;3.10;;
46875;SDS011;32866;50.160;14.768;2023-04-02T12:03:33;4.30;;;2.80;;
46875;SDS011;32866;50.160;14.768;2023-04-02T12:08:48;5.93;;;2.97;;
46875;SDS011;32866;50.160;14.768;2023-04-02T12:11:29;5.17;;;2.50;;
46875;SDS011;32866;50.160;14.768;2023-04-02T12:13:57;4.63;;;2.67;;
46875;SDS011;32866;50.160;14.768;2023-04-02T12:16:23;3.83;;;2.20;;
46875;SDS011;32866;50.160;14.768;2023-04-02T12:18:55;3.83;;;2.63;;
46875;SDS011;32866;50.160;14.768;2023-04-02T12:21:22;6.28;;;2.92;;
46875;SDS011;32866;50.160;14.768;2023-04-02T12:23:51;5.20;;;2.93;;
46875;SDS011;32866;50.160;14.768;2023-04-02T12:26:24;7.17;;;3.20;;
46875;SDS011;32866;50.160;14.768;2023-04-02T12:28:50;4.00;;;2.90;;
46875;SDS011;32866;50.160;14.768;2023-04-02T12:31:16;5.50;;;3.45;;
46875;SDS011;32866;50.160;14.768;2023-04-02T12:33:44;38.13;;;12.33;;
46875;SDS011;32866;50.160;14.768;2023-04-02T12:38:42;59.22;;;19.13;;
46875;SDS011;32866;50.160;14.768;2023-04-02T12:41:26;38.70;;;10.77;;
46875;SDS011;32866;50.160;14.768;2023-04-02T12:46:23;15.70;;;5.53;;
46875;SDS011;32866;50.160;14.768;2023-04-02T12:48:50;66.37;;;20.30;;
46875;SDS011;32866;50.160;14.768;2023-04-02T12:51:19;45.70;;;15.33;;
46875;SDS011;32866;50.160;14.768;2023-04-02T12:53:49;36.55;;;12.57;;
46875;SDS011;32866;50.160;14.768;2023-04-02T12:56:19;25.57;;;9.43;;
46875;SDS011;32866;50.160;14.768;2023-04-02T12:58:53;37.37;;;12.27;;
46875;SDS011;32866;50.160;14.768;2023-04-02T13:01:24;17.23;;;6.70;;
46875;SDS011;32866;50.160;14.768;2023-04-02T13:04:04;56.00;;;17.50;;
46875;SDS011;32866;50.160;14.768;2023-04-02T13:06:32;62.73;;;21.67;;
46875;SDS011;32866;50.160;14.768;2023-04-02T13:09:00;27.60;;;9.20;;
46875;SDS011;32866;50.160;14.768;2023-04-02T13:11:37;16.43;;;7.17;;
46875;SDS011;32866;50.160;14.768;2023-04-02T13:14:05;14.03;;;6.13;;
46875;SDS011;32866;50.160;14.768;2023-04-02T13:16:38;12.97;;;6.43;;
46875;SDS011;32866;50.160;14.768;2023-04-02T13:19:24;12.98;;;5.22;;
46875;SDS011;32866;50.160;14.768;2023-04-02T13:21:58;59.83;;;18.27;;
46875;SDS011;32866;50.160;14.768;2023-04-02T13:24:26;7.67;;;4.17;;
46875;SDS011;32866;50.160;14.768;2023-04-02T13:26:54;7.20;;;4.37;;
46875;SDS011;32866;50.160;14.768;2023-04-02T13:29:39;5.33;;;4.03;;
46875;SDS011;32866;50.160;14.768;2023-04-02T13:32:06;5.30;;;3.20;;
46875;SDS011;32866;50.160;14.768;2023-04-02T13:34:36;5.23;;;3.13;;
46875;SDS011;32866;50.160;14.768;2023-04-02T13:37:02;5.45;;;2.88;;
46875;SDS011;32866;50.160;14.768;2023-04-02T13:39:27;3.92;;;2.80;;
46875;SDS011;32866;50.160;14.768;2023-04-02T13:42:00;5.70;;;3.90;;
46875;SDS011;32866;50.160;14.768;2023-04-02T13:44:31;5.33;;;3.60;;
46875;SDS011;32866;50.160;14.768;2023-04-02T13:47:00;4.13;;;2.50;;
46875;SDS011;32866;50.160;14.768;2023-04-02T13:49:26;4.95;;;3.13;;
46875;SDS011;32866;50.160;14.768;2023-04-02T13:51:53;3.58;;;2.78;;
46875;SDS011;32866;50.160;14.768;2023-04-02T13:54:24;3.73;;;2.40;;
46875;SDS011;32866;50.160;14.768;2023-04-02T13:56:55;4.23;;;2.63;;
46875;SDS011;32866;50.160;14.768;2023-04-02T14:01:47;7.70;;;3.03;;
46875;SDS011;32866;50.160;14.768;2023-04-02T14:04:17;3.50;;;2.70;;
46875;SDS011;32866;50.160;14.768;2023-04-02T14:15:10;4.63;;;2.57;;
46875;SDS011;32866;50.160;14.768;2023-04-02T14:28:46;4.28;;;3.30;;
46875;SDS011;32866;50.160;14.768;2023-04-02T14:34:46;4.90;;;2.57;;
46875;SDS011;32866;50.160;14.768;2023-04-02T14:37:32;6.47;;;2.10;;
46875;SDS011;32866;50.160;14.768;2023-04-02T14:43:08;3.07;;;2.23;;
46875;SDS011;32866;50.160;14.768;2023-04-02T14:48:29;4.10;;;2.77;;
46875;SDS011;32866;50.160;14.768;2023-04-02T14:51:04;4.70;;;3.47;;
46875;SDS011;32866;50.160;14.768;2023-04-02T14:53:51;5.20;;;2.78;;
46875;SDS011;32866;50.160;14.768;2023-04-02T14:56:24;4.70;;;2.95;;
46875;SDS011;32866;50.160;14.768;2023-04-02T14:59:00;6.00;;;3.08;;
46875;SDS011;32866;50.160;14.768;2023-04-02T15:01:42;5.17;;;3.40;;
46875;SDS011;32866;50.160;14.768;2023-04-02T15:04:12;9.93;;;6.03;;
46875;SDS011;32866;50.160;14.768;2023-04-02T15:06:43;7.87;;;4.23;;
46875;SDS011;32866;50.160;14.768;2023-04-02T15:11:52;22.47;;;9.80;;
46875;SDS011;32866;50.160;14.768;2023-04-02T15:14:34;17.93;;;7.97;;
46875;SDS011;32866;50.160;14.768;2023-04-02T15:17:10;20.83;;;7.17;;
46875;SDS011;32866;50.160;14.768;2023-04-02T15:19:36;31.57;;;10.87;;
46875;SDS011;32866;50.160;14.768;2023-04-02T15:43:41;7.50;;;3.60;;
46875;SDS011;32866;50.160;14.768;2023-04-02T15:48:50;3.27;;;2.27;;
46875;SDS011;32866;50.160;14.768;2023-04-02T15:57:21;5.53;;;3.20;;
46875;SDS011;32866;50.160;14.768;2023-04-02T16:00:13;7.37;;;4.00;;
46875;SDS011;32866;50.160;14.768;2023-04-02T16:02:53;8.00;;;4.47;;
46875;SDS011;32866;50.160;14.768;2023-04-02T16:05:54;6.33;;;3.77;;
46875;SDS011;32866;50.160;14.768;2023-04-02T16:11:28;8.57;;;3.97;;
46875;SDS011;32866;50.160;14.768;2023-04-02T16:13:59;6.22;;;3.55;;
46875;SDS011;32866;50.160;14.768;2023-04-02T16:16:46;13.50;;;5.43;;
46875;SDS011;32866;50.160;14.768;2023-04-02T16:22:08;5.80;;;3.20;;
46875;SDS011;32866;50.160;14.768;2023-04-02T16:24:41;6.57;;;3.83;;
46875;SDS011;32866;50.160;14.768;2023-04-02T16:55:28;11.93;;;5.93;;
46875;SDS011;32866;50.160;14.768;2023-04-02T16:58:14;7.30;;;3.77;;
46875;SDS011;32866;50.160;14.768;2023-04-02T17:01:17;5.97;;;3.77;;
46875;SDS011;32866;50.160;14.768;2023-04-02T17:11:40;7.57;;;3.17;;
46875;SDS011;32866;50.160;14.768;2023-04-02T17:14:22;4.53;;;2.53;;
46875;SDS011;32866;50.160;14.768;2023-04-02T17:16:50;4.33;;;2.97;;
46875;SDS011;32866;50.160;14.768;2023-04-02T17:19:19;3.50;;;2.67;;
46875;SDS011;32866;50.160;14.768;2023-04-02T17:21:48;5.13;;;3.30;;
46875;SDS011;32866;50.160;14.768;2023-04-02T17:26:52;7.03;;;3.80;;
46875;SDS011;32866;50.160;14.768;2023-04-02T17:29:24;7.73;;;3.70;;
46875;SDS011;32866;50.160;14.768;2023-04-02T17:32:03;6.30;;;3.60;;
46875;SDS011;32866;50.160;14.768;2023-04-02T17:34:36;6.67;;;3.73;;
46875;SDS011;32866;50.160;14.768;2023-04-02T17:37:19;9.18;;;4.03;;
46875;SDS011;32866;50.160;14.768;2023-04-02T17:48:04;6.87;;;3.30;;
46875;SDS011;32866;50.160;14.768;2023-04-02T17:50:51;3.77;;;2.83;;
46875;SDS011;32866;50.160;14.768;2023-04-02T17:53:23;6.50;;;3.03;;
46875;SDS011;32866;50.160;14.768;2023-04-02T18:01:09;14.10;;;6.70;;
46875;SDS011;32866;50.160;14.768;2023-04-02T18:03:48;17.63;;;8.07;;
46875;SDS011;32866;50.160;14.768;2023-04-02T18:09:45;32.63;;;15.53;;
46875;SDS011;32866;50.160;14.768;2023-04-02T18:20:42;23.83;;;12.77;;
46875;SDS011;32866;50.160;14.768;2023-04-02T18:29:18;7.33;;;5.00;;
46875;SDS011;32866;50.160;14.768;2023-04-02T18:35:06;8.23;;;4.77;;
46875;SDS011;32866;50.160;14.768;2023-04-02T18:43:04;9.87;;;4.10;;
46875;SDS011;32866;50.160;14.768;2023-04-02T18:50:48;11.32;;;4.85;;
46875;SDS011;32866;50.160;14.768;2023-04-02T18:53:15;9.27;;;4.45;;
46875;SDS011;32866;50.160;14.768;2023-04-02T18:55:50;10.10;;;4.53;;
46875;SDS011;32866;50.160;14.768;2023-04-02T18:58:28;9.00;;;4.17;;
46875;SDS011;32866;50.160;14.768;2023-04-02T19:00:56;9.47;;;4.43;;
46875;SDS011;32866;50.160;14.768;2023-04-02T19:03:25;5.40;;;2.73;;
46875;SDS011;32866;50.160;14.768;2023-04-02T19:08:32;8.70;;;3.33;;
46875;SDS011;32866;50.160;14.768;2023-04-02T19:11:06;5.67;;;3.10;;
46875;SDS011;32866;50.160;14.768;2023-04-02T19:13:36;9.30;;;4.23;;
46875;SDS011;32866;50.160;14.768;2023-04-02T19:30:48;5.20;;;2.63;;
46875;SDS011;32866;50.160;14.768;2023-04-02T19:42:09;10.50;;;4.00;;
46875;SDS011;32866;50.160;14.768;2023-04-02T19:45:00;11.03;;;4.47;;
46875;SDS011;32866;50.160;14.768;2023-04-02T19:49:52;5.57;;;3.03;;
46875;SDS011;32866;50.160;14.768;2023-04-02T19:52:19;4.23;;;2.63;;
46875;SDS011;32866;50.160;14.768;2023-04-02T19:54:45;5.00;;;2.47;;
46875;SDS011;32866;50.160;14.768;2023-04-02T19:57:13;6.97;;;2.85;;
46875;SDS011;32866;50.160;14.768;2023-04-02T19:59:39;2.90;;;2.33;;
46875;SDS011;32866;50.160;14.768;2023-04-02T20:02:05;3.72;;;2.50;;
46875;SDS011;32866;50.160;14.768;2023-04-02T20:04:34;4.00;;;1.87;;
46875;SDS011;32866;50.160;14.768;2023-04-02T20:07:00;2.78;;;2.45;;
46875;SDS011;32866;50.160;14.768;2023-04-02T20:09:25;4.90;;;2.08;;
46875;SDS011;32866;50.160;14.768;2023-04-02T20:11:50;4.15;;;2.50;;
46875;SDS011;32866;50.160;14.768;2023-04-02T20:14:16;4.38;;;2.03;;
46875;SDS011;32866;50.160;14.768;2023-04-02T20:16:41;3.25;;;1.88;;
46875;SDS011;32866;50.160;14.768;2023-04-02T20:19:07;6.82;;;2.95;;
46875;SDS011;32866;50.160;14.768;2023-04-02T20:21:32;3.70;;;1.90;;
46875;SDS011;32866;50.160;14.768;2023-04-02T20:24:02;5.53;;;3.10;;
46875;SDS011;32866;50.160;14.768;2023-04-02T20:26:28;5.23;;;3.00;;
46875;SDS011;32866;50.160;14.768;2023-04-02T20:28:54;5.65;;;1.92;;
46875;SDS011;32866;50.160;14.768;2023-04-02T20:31:19;6.80;;;2.58;;
46875;SDS011;32866;50.160;14.768;2023-04-02T20:33:44;3.38;;;2.55;;
46875;SDS011;32866;50.160;14.768;2023-04-02T20:36:11;4.50;;;2.28;;
46875;SDS011;32866;50.160;14.768;2023-04-02T20:38:39;6.00;;;3.57;;
46875;SDS011;32866;50.160;14.768;2023-04-02T20:41:05;3.70;;;2.70;;
46875;SDS011;32866;50.160;14.768;2023-04-02T20:43:31;8.33;;;3.07;;
46875;SDS011;32866;50.160;14.768;2023-04-02T20:45:58;5.85;;;3.28;;
46875;SDS011;32866;50.160;14.768;2023-04-02T20:48:25;7.53;;;3.33;;
46875;SDS011;32866;50.160;14.768;2023-04-02T20:50:54;7.20;;;2.93;;
46875;SDS011;32866;50.160;14.768;2023-04-02T20:53:20;6.32;;;3.35;;
46875;SDS011;32866;50.160;14.768;2023-04-02T20:55:45;5.70;;;3.08;;
46875;SDS011;32866;50.160;14.768;2023-04-02T20:58:12;5.78;;;2.45;;
46875;SDS011;32866;50.160;14.768;2023-04-02T21:00:39;4.67;;;2.53;;
46875;SDS011;32866;50.160;14.768;2023-04-02T21:03:05;3.50;;;2.67;;
46875;SDS011;32866;50.160;14.768;2023-04-02T21:05:30;4.78;;;2.63;;
46875;SDS011;32866;50.160;14.768;2023-04-02T21:07:56;5.50;;;2.53;;
46875;SDS011;32866;50.160;14.768;2023-04-02T21:10:22;5.65;;;3.15;;